sensor_id;sensor_type;location;lat;lon;timestamp;P1;durP1;ratioP1;P2;durP2;ratioP2
74259;SDS011;62630;55.874;37.516;2022-11-20T00:01:15;11.10;;;5.43;;
74259;SDS011;62630;55.874;37.516;2022-11-20T00:03:43;8.93;;;5.18;;
74259;SDS011;62630;55.874;37.516;2022-11-20T00:06:10;8.95;;;5.18;;
74259;SDS011;62630;55.874;37.516;2022-11-20T00:08:37;11.85;;;4.65;;
74259;SDS011;62630;55.874;37.516;2022-11-20T00:11:13;8.25;;;4.97;;
74259;SDS011;62630;55.874;37.516;2022-11-20T00:13:39;9.60;;;4.97;;
74259;SDS011;62630;55.874;37.516;2022-11-20T00:16:05;10.75;;;5.68;;
74259;SDS011;62630;55.874;37.516;2022-11-20T00:18:33;12.10;;;5.95;;
74259;SDS011;62630;55.874;37.516;2022-11-20T00:21:06;11.32;;;5.43;;
74259;SDS011;62630;55.874;37.516;2022-11-20T00:23:37;7.32;;;4.75;;
74259;SDS011;62630;55.874;37.516;2022-11-20T00:26:03;11.68;;;5.80;;
74259;SDS011;62630;55.874;37.516;2022-11-20T00:28:29;10.00;;;5.18;;
74259;SDS011;62630;55.874;37.516;2022-11-20T00:33:34;7.40;;;4.82;;
74259;SDS011;62630;55.874;37.516;2022-11-20T00:36:03;8.25;;;4.20;;
74259;SDS011;62630;55.874;37.516;2022-11-20T00:38:31;8.93;;;5.15;;
74259;SDS011;62630;55.874;37.516;2022-11-20T00:40:57;9.45;;;5.13;;
74259;SDS011;62630;55.874;37.516;2022-11-20T00:43:24;8.25;;;4.72;;
74259;SDS011;62630;55.874;37.516;2022-11-20T00:45:50;7.35;;;4.10;;
74259;SDS011;62630;55.874;37.516;2022-11-20T00:48:20;6.93;;;3.88;;
74259;SDS011;62630;55.874;37.516;2022-11-20T00:50:46;9.25;;;4.43;;
74259;SDS011;62630;55.874;37.516;2022-11-20T00:53:11;6.38;;;4.30;;
74259;SDS011;62630;55.874;37.516;2022-11-20T00:55:37;7.38;;;4.13;;
74259;SDS011;62630;55.874;37.516;2022-11-20T00:58:02;7.18;;;3.90;;
74259;SDS011;62630;55.874;37.516;2022-11-20T01:00:28;8.68;;;4.45;;
74259;SDS011;62630;55.874;37.516;2022-11-20T01:02:55;7.40;;;4.80;;
74259;SDS011;62630;55.874;37.516;2022-11-20T01:05:20;6.13;;;3.85;;
74259;SDS011;62630;55.874;37.516;2022-11-20T01:07:46;6.40;;;4.05;;
74259;SDS011;62630;55.874;37.516;2022-11-20T01:10:11;8.20;;;4.63;;
74259;SDS011;62630;55.874;37.516;2022-11-20T01:12:37;7.60;;;4.35;;
74259;SDS011;62630;55.874;37.516;2022-11-20T01:15:02;6.95;;;3.92;;
74259;SDS011;62630;55.874;37.516;2022-11-20T01:17:28;9.20;;;4.53;;
74259;SDS011;62630;55.874;37.516;2022-11-20T01:19:55;6.97;;;4.43;;
74259;SDS011;62630;55.874;37.516;2022-11-20T01:22:21;7.80;;;4.38;;
74259;SDS011;62630;55.874;37.516;2022-11-20T01:24:46;7.28;;;4.30;;
74259;SDS011;62630;55.874;37.516;2022-11-20T01:27:12;6.25;;;4.07;;
74259;SDS011;62630;55.874;37.516;2022-11-20T01:29:37;13.07;;;5.30;;
74259;SDS011;62630;55.874;37.516;2022-11-20T01:32:03;8.25;;;3.70;;
74259;SDS011;62630;55.874;37.516;2022-11-20T01:34:28;6.85;;;4.35;;
74259;SDS011;62630;55.874;37.516;2022-11-20T01:36:54;10.95;;;5.20;;
74259;SDS011;62630;55.874;37.516;2022-11-20T01:39:20;7.35;;;4.15;;
74259;SDS011;62630;55.874;37.516;2022-11-20T01:41:48;7.03;;;4.15;;
74259;SDS011;62630;55.874;37.516;2022-11-20T01:50:21;6.57;;;3.70;;
74259;SDS011;62630;55.874;37.516;2022-11-20T01:52:59;5.38;;;3.63;;
74259;SDS011;62630;55.874;37.516;2022-11-20T01:55:32;7.30;;;3.72;;
74259;SDS011;62630;55.874;37.516;2022-11-20T01:58:01;6.68;;;3.92;;
74259;SDS011;62630;55.874;37.516;2022-11-20T02:00:28;7.43;;;4.32;;
74259;SDS011;62630;55.874;37.516;2022-11-20T02:02:56;8.90;;;3.53;;
74259;SDS011;62630;55.874;37.516;2022-11-20T02:05:25;6.93;;;3.78;;
74259;SDS011;62630;55.874;37.516;2022-11-20T02:07:57;8.07;;;3.92;;
74259;SDS011;62630;55.874;37.516;2022-11-20T02:10:24;7.40;;;3.88;;
74259;SDS011;62630;55.874;37.516;2022-11-20T02:12:50;8.43;;;3.97;;
74259;SDS011;62630;55.874;37.516;2022-11-20T02:15:35;8.13;;;5.13;;
74259;SDS011;62630;55.874;37.516;2022-11-20T02:18:00;5.72;;;3.67;;
74259;SDS011;62630;55.874;37.516;2022-11-20T02:20:26;8.20;;;4.80;;
74259;SDS011;62630;55.874;37.516;2022-11-20T02:22:56;9.75;;;4.35;;
74259;SDS011;62630;55.874;37.516;2022-11-20T02:25:26;5.28;;;2.83;;
74259;SDS011;62630;55.874;37.516;2022-11-20T02:27:53;6.45;;;3.50;;
74259;SDS011;62630;55.874;37.516;2022-11-20T02:30:18;7.55;;;4.47;;
74259;SDS011;62630;55.874;37.516;2022-11-20T02:32:44;7.68;;;4.32;;
74259;SDS011;62630;55.874;37.516;2022-11-20T02:35:54;5.95;;;3.58;;
74259;SDS011;62630;55.874;37.516;2022-11-20T02:37:56;6.15;;;3.72;;
74259;SDS011;62630;55.874;37.516;2022-11-20T02:40:24;5.63;;;3.38;;
74259;SDS011;62630;55.874;37.516;2022-11-20T02:42:53;6.40;;;3.40;;
74259;SDS011;62630;55.874;37.516;2022-11-20T02:45:19;7.32;;;3.95;;
74259;SDS011;62630;55.874;37.516;2022-11-20T02:47:45;7.05;;;3.75;;
74259;SDS011;62630;55.874;37.516;2022-11-20T02:50:10;8.50;;;3.60;;
74259;SDS011;62630;55.874;37.516;2022-11-20T02:52:36;7.07;;;3.90;;
74259;SDS011;62630;55.874;37.516;2022-11-20T02:55:02;7.88;;;4.40;;
74259;SDS011;62630;55.874;37.516;2022-11-20T02:57:27;7.00;;;4.03;;
74259;SDS011;62630;55.874;37.516;2022-11-20T02:59:53;10.15;;;4.05;;
74259;SDS011;62630;55.874;37.516;2022-11-20T03:02:19;6.00;;;3.72;;
74259;SDS011;62630;55.874;37.516;2022-11-20T03:04:44;6.80;;;3.67;;
74259;SDS011;62630;55.874;37.516;2022-11-20T03:07:10;6.20;;;3.67;;
74259;SDS011;62630;55.874;37.516;2022-11-20T03:09:35;7.90;;;4.10;;
74259;SDS011;62630;55.874;37.516;2022-11-20T03:12:01;6.72;;;3.53;;
74259;SDS011;62630;55.874;37.516;2022-11-20T03:14:26;9.20;;;4.53;;
74259;SDS011;62630;55.874;37.516;2022-11-20T03:16:52;9.07;;;4.35;;
74259;SDS011;62630;55.874;37.516;2022-11-20T03:19:17;6.65;;;3.72;;
74259;SDS011;62630;55.874;37.516;2022-11-20T03:21:43;8.82;;;3.83;;
74259;SDS011;62630;55.874;37.516;2022-11-20T03:24:08;8.32;;;4.30;;
74259;SDS011;62630;55.874;37.516;2022-11-20T03:26:34;6.43;;;4.13;;
74259;SDS011;62630;55.874;37.516;2022-11-20T03:29:00;7.70;;;4.20;;
74259;SDS011;62630;55.874;37.516;2022-11-20T03:31:30;8.10;;;4.15;;
74259;SDS011;62630;55.874;37.516;2022-11-20T03:33:57;7.45;;;4.13;;
74259;SDS011;62630;55.874;37.516;2022-11-20T03:36:24;7.47;;;4.03;;
74259;SDS011;62630;55.874;37.516;2022-11-20T03:38:50;9.50;;;3.65;;
74259;SDS011;62630;55.874;37.516;2022-11-20T03:41:20;5.30;;;3.58;;
74259;SDS011;62630;55.874;37.516;2022-11-20T03:43:48;6.15;;;3.88;;
74259;SDS011;62630;55.874;37.516;2022-11-20T03:46:21;6.88;;;3.90;;
74259;SDS011;62630;55.874;37.516;2022-11-20T03:48:47;7.32;;;4.20;;
74259;SDS011;62630;55.874;37.516;2022-11-20T03:51:13;8.63;;;3.80;;
74259;SDS011;62630;55.874;37.516;2022-11-20T03:53:40;5.22;;;3.38;;
74259;SDS011;62630;55.874;37.516;2022-11-20T03:56:07;6.90;;;3.97;;
74259;SDS011;62630;55.874;37.516;2022-11-20T03:58:37;7.18;;;3.90;;
74259;SDS011;62630;55.874;37.516;2022-11-20T04:01:07;7.55;;;3.25;;
74259;SDS011;62630;55.874;37.516;2022-11-20T04:03:38;6.57;;;3.40;;
74259;SDS011;62630;55.874;37.516;2022-11-20T04:06:08;8.00;;;4.32;;
74259;SDS011;62630;55.874;37.516;2022-11-20T04:08:36;8.35;;;4.53;;
74259;SDS011;62630;55.874;37.516;2022-11-20T04:11:21;9.73;;;3.85;;
74259;SDS011;62630;55.874;37.516;2022-11-20T04:13:55;7.60;;;4.22;;
74259;SDS011;62630;55.874;37.516;2022-11-20T04:16:23;8.63;;;4.53;;
74259;SDS011;62630;55.874;37.516;2022-11-20T04:18:53;7.68;;;3.97;;
74259;SDS011;62630;55.874;37.516;2022-11-20T04:21:23;8.57;;;4.32;;
74259;SDS011;62630;55.874;37.516;2022-11-20T04:23:50;9.25;;;4.30;;
74259;SDS011;62630;55.874;37.516;2022-11-20T04:26:16;8.48;;;4.38;;
74259;SDS011;62630;55.874;37.516;2022-11-20T04:28:42;8.32;;;4.47;;
74259;SDS011;62630;55.874;37.516;2022-11-20T04:31:14;7.47;;;4.13;;
74259;SDS011;62630;55.874;37.516;2022-11-20T04:33:42;7.03;;;4.10;;
74259;SDS011;62630;55.874;37.516;2022-11-20T04:36:12;9.82;;;5.45;;
74259;SDS011;62630;55.874;37.516;2022-11-20T04:38:39;8.05;;;4.80;;
74259;SDS011;62630;55.874;37.516;2022-11-20T04:41:06;8.15;;;4.57;;
74259;SDS011;62630;55.874;37.516;2022-11-20T04:43:33;8.85;;;4.53;;
74259;SDS011;62630;55.874;37.516;2022-11-20T04:45:59;7.30;;;3.80;;
74259;SDS011;62630;55.874;37.516;2022-11-20T04:48:26;7.68;;;4.35;;
74259;SDS011;62630;55.874;37.516;2022-11-20T04:50:52;8.75;;;4.07;;
74259;SDS011;62630;55.874;37.516;2022-11-20T04:53:18;8.70;;;4.40;;
74259;SDS011;62630;55.874;37.516;2022-11-20T04:55:44;6.00;;;3.75;;
74259;SDS011;62630;55.874;37.516;2022-11-20T04:58:10;7.88;;;4.20;;
74259;SDS011;62630;55.874;37.516;2022-11-20T05:00:36;8.43;;;4.70;;
74259;SDS011;62630;55.874;37.516;2022-11-20T05:03:02;7.55;;;4.10;;
74259;SDS011;62630;55.874;37.516;2022-11-20T05:05:27;7.38;;;3.75;;
74259;SDS011;62630;55.874;37.516;2022-11-20T05:07:55;10.10;;;4.88;;
74259;SDS011;62630;55.874;37.516;2022-11-20T05:10:21;7.50;;;4.25;;
74259;SDS011;62630;55.874;37.516;2022-11-20T05:12:46;9.73;;;4.60;;
74259;SDS011;62630;55.874;37.516;2022-11-20T05:15:12;7.80;;;4.28;;
74259;SDS011;62630;55.874;37.516;2022-11-20T05:17:37;8.23;;;4.43;;
74259;SDS011;62630;55.874;37.516;2022-11-20T05:20:03;7.53;;;4.30;;
74259;SDS011;62630;55.874;37.516;2022-11-20T05:22:28;10.18;;;4.60;;
74259;SDS011;62630;55.874;37.516;2022-11-20T05:24:54;7.85;;;4.70;;
74259;SDS011;62630;55.874;37.516;2022-11-20T05:27:19;6.97;;;4.15;;
74259;SDS011;62630;55.874;37.516;2022-11-20T05:29:45;7.63;;;4.45;;
74259;SDS011;62630;55.874;37.516;2022-11-20T05:32:10;10.93;;;4.40;;
74259;SDS011;62630;55.874;37.516;2022-11-20T05:34:36;8.82;;;4.05;;
74259;SDS011;62630;55.874;37.516;2022-11-20T05:37:02;6.85;;;4.22;;
74259;SDS011;62630;55.874;37.516;2022-11-20T05:39:28;7.40;;;4.57;;
74259;SDS011;62630;55.874;37.516;2022-11-20T05:41:53;7.90;;;4.28;;
74259;SDS011;62630;55.874;37.516;2022-11-20T05:44:38;9.15;;;5.07;;
74259;SDS011;62630;55.874;37.516;2022-11-20T05:47:03;9.07;;;4.43;;
74259;SDS011;62630;55.874;37.516;2022-11-20T05:49:29;9.25;;;4.68;;
74259;SDS011;62630;55.874;37.516;2022-11-20T05:51:54;6.95;;;4.00;;
74259;SDS011;62630;55.874;37.516;2022-11-20T05:54:20;8.38;;;5.10;;
74259;SDS011;62630;55.874;37.516;2022-11-20T05:56:45;8.40;;;4.75;;
74259;SDS011;62630;55.874;37.516;2022-11-20T05:59:11;9.52;;;5.03;;
74259;SDS011;62630;55.874;37.516;2022-11-20T06:01:36;8.82;;;5.03;;
74259;SDS011;62630;55.874;37.516;2022-11-20T06:04:02;8.77;;;5.03;;
74259;SDS011;62630;55.874;37.516;2022-11-20T06:06:27;8.43;;;4.65;;
74259;SDS011;62630;55.874;37.516;2022-11-20T06:08:53;9.68;;;5.20;;
74259;SDS011;62630;55.874;37.516;2022-11-20T06:11:19;10.32;;;5.30;;
74259;SDS011;62630;55.874;37.516;2022-11-20T06:13:45;9.73;;;5.72;;
74259;SDS011;62630;55.874;37.516;2022-11-20T06:16:12;8.20;;;5.18;;
74259;SDS011;62630;55.874;37.516;2022-11-20T06:18:39;8.55;;;4.82;;
74259;SDS011;62630;55.874;37.516;2022-11-20T06:21:05;9.55;;;5.35;;
74259;SDS011;62630;55.874;37.516;2022-11-20T06:23:35;9.60;;;4.90;;
74259;SDS011;62630;55.874;37.516;2022-11-20T06:26:02;8.93;;;5.30;;
74259;SDS011;62630;55.874;37.516;2022-11-20T06:28:29;7.78;;;5.18;;
74259;SDS011;62630;55.874;37.516;2022-11-20T06:30:55;8.50;;;5.38;;
74259;SDS011;62630;55.874;37.516;2022-11-20T06:33:20;10.15;;;5.03;;
74259;SDS011;62630;55.874;37.516;2022-11-20T06:35:46;8.90;;;5.20;;
74259;SDS011;62630;55.874;37.516;2022-11-20T06:38:11;10.30;;;4.78;;
74259;SDS011;62630;55.874;37.516;2022-11-20T06:40:39;8.65;;;5.15;;
74259;SDS011;62630;55.874;37.516;2022-11-20T06:43:05;11.05;;;5.50;;
74259;SDS011;62630;55.874;37.516;2022-11-20T06:45:31;10.80;;;5.20;;
74259;SDS011;62630;55.874;37.516;2022-11-20T06:47:59;10.25;;;5.15;;
74259;SDS011;62630;55.874;37.516;2022-11-20T06:50:24;11.32;;;5.63;;
74259;SDS011;62630;55.874;37.516;2022-11-20T06:52:50;9.13;;;5.20;;
74259;SDS011;62630;55.874;37.516;2022-11-20T06:55:15;10.10;;;5.20;;
74259;SDS011;62630;55.874;37.516;2022-11-20T06:57:41;10.43;;;5.53;;
74259;SDS011;62630;55.874;37.516;2022-11-20T07:00:06;10.40;;;5.60;;
74259;SDS011;62630;55.874;37.516;2022-11-20T07:02:32;10.73;;;5.55;;
74259;SDS011;62630;55.874;37.516;2022-11-20T07:04:59;11.65;;;6.07;;
74259;SDS011;62630;55.874;37.516;2022-11-20T07:07:24;10.20;;;5.50;;
74259;SDS011;62630;55.874;37.516;2022-11-20T07:09:50;11.60;;;5.95;;
74259;SDS011;62630;55.874;37.516;2022-11-20T07:12:16;10.52;;;5.90;;
74259;SDS011;62630;55.874;37.516;2022-11-20T07:14:41;11.15;;;5.22;;
74259;SDS011;62630;55.874;37.516;2022-11-20T07:17:07;10.00;;;5.20;;
74259;SDS011;62630;55.874;37.516;2022-11-20T07:19:32;13.50;;;5.18;;
74259;SDS011;62630;55.874;37.516;2022-11-20T07:21:58;11.43;;;6.10;;
74259;SDS011;62630;55.874;37.516;2022-11-20T07:24:23;9.38;;;5.47;;
74259;SDS011;62630;55.874;37.516;2022-11-20T07:26:49;9.57;;;5.65;;
74259;SDS011;62630;55.874;37.516;2022-11-20T07:29:15;10.60;;;5.75;;
74259;SDS011;62630;55.874;37.516;2022-11-20T07:31:41;12.52;;;6.88;;
74259;SDS011;62630;55.874;37.516;2022-11-20T07:34:07;10.95;;;6.13;;
74259;SDS011;62630;55.874;37.516;2022-11-20T07:36:33;8.73;;;5.32;;
74259;SDS011;62630;55.874;37.516;2022-11-20T07:38:59;9.73;;;5.75;;
74259;SDS011;62630;55.874;37.516;2022-11-20T07:41:24;10.98;;;6.13;;
74259;SDS011;62630;55.874;37.516;2022-11-20T07:43:50;11.35;;;6.30;;
74259;SDS011;62630;55.874;37.516;2022-11-20T07:46:15;10.70;;;5.80;;
74259;SDS011;62630;55.874;37.516;2022-11-20T07:48:41;10.07;;;5.38;;
74259;SDS011;62630;55.874;37.516;2022-11-20T07:51:06;14.88;;;6.57;;
74259;SDS011;62630;55.874;37.516;2022-11-20T07:53:32;11.48;;;5.88;;
74259;SDS011;62630;55.874;37.516;2022-11-20T07:56:00;13.65;;;5.95;;
74259;SDS011;62630;55.874;37.516;2022-11-20T07:58:26;11.63;;;6.18;;
74259;SDS011;62630;55.874;37.516;2022-11-20T08:00:55;11.82;;;5.88;;
74259;SDS011;62630;55.874;37.516;2022-11-20T08:03:20;13.48;;;6.35;;
74259;SDS011;62630;55.874;37.516;2022-11-20T08:05:46;10.82;;;5.13;;
74259;SDS011;62630;55.874;37.516;2022-11-20T08:08:11;9.82;;;5.93;;
74259;SDS011;62630;55.874;37.516;2022-11-20T08:10:37;10.77;;;5.78;;
74259;SDS011;62630;55.874;37.516;2022-11-20T08:13:03;11.43;;;5.95;;
74259;SDS011;62630;55.874;37.516;2022-11-20T08:15:48;10.23;;;5.82;;
74259;SDS011;62630;55.874;37.516;2022-11-20T08:18:16;9.85;;;6.07;;
74259;SDS011;62630;55.874;37.516;2022-11-20T08:20:42;13.70;;;6.55;;
74259;SDS011;62630;55.874;37.516;2022-11-20T08:23:08;15.50;;;6.70;;
74259;SDS011;62630;55.874;37.516;2022-11-20T08:25:34;13.15;;;6.45;;
74259;SDS011;62630;55.874;37.516;2022-11-20T08:28:01;13.85;;;7.18;;
74259;SDS011;62630;55.874;37.516;2022-11-20T08:30:31;14.48;;;7.10;;
74259;SDS011;62630;55.874;37.516;2022-11-20T08:33:04;14.73;;;7.35;;
74259;SDS011;62630;55.874;37.516;2022-11-20T08:35:33;12.93;;;6.45;;
74259;SDS011;62630;55.874;37.516;2022-11-20T08:38:00;15.68;;;6.03;;
74259;SDS011;62630;55.874;37.516;2022-11-20T08:40:26;13.13;;;7.25;;
74259;SDS011;62630;55.874;37.516;2022-11-20T08:42:52;12.45;;;6.10;;
74259;SDS011;62630;55.874;37.516;2022-11-20T08:45:18;13.60;;;7.05;;
74259;SDS011;62630;55.874;37.516;2022-11-20T08:47:44;14.18;;;6.97;;
74259;SDS011;62630;55.874;37.516;2022-11-20T08:50:10;12.90;;;6.95;;
74259;SDS011;62630;55.874;37.516;2022-11-20T08:52:37;13.57;;;7.05;;
74259;SDS011;62630;55.874;37.516;2022-11-20T08:55:03;16.00;;;7.18;;
74259;SDS011;62630;55.874;37.516;2022-11-20T08:57:33;12.30;;;7.03;;
74259;SDS011;62630;55.874;37.516;2022-11-20T08:59:59;22.40;;;7.57;;
74259;SDS011;62630;55.874;37.516;2022-11-20T09:02:25;16.45;;;8.00;;
74259;SDS011;62630;55.874;37.516;2022-11-20T09:04:50;16.20;;;8.75;;
74259;SDS011;62630;55.874;37.516;2022-11-20T09:07:16;17.20;;;7.65;;
74259;SDS011;62630;55.874;37.516;2022-11-20T09:09:41;14.43;;;7.85;;
74259;SDS011;62630;55.874;37.516;2022-11-20T09:12:07;13.70;;;7.57;;
74259;SDS011;62630;55.874;37.516;2022-11-20T09:14:32;19.17;;;8.48;;
74259;SDS011;62630;55.874;37.516;2022-11-20T09:16:58;16.27;;;8.23;;
74259;SDS011;62630;55.874;37.516;2022-11-20T09:19:24;22.02;;;8.55;;
74259;SDS011;62630;55.874;37.516;2022-11-20T09:21:50;21.20;;;9.65;;
74259;SDS011;62630;55.874;37.516;2022-11-20T09:24:16;18.75;;;8.98;;
74259;SDS011;62630;55.874;37.516;2022-11-20T09:26:41;22.40;;;11.40;;
74259;SDS011;62630;55.874;37.516;2022-11-20T09:29:07;29.05;;;10.10;;
74259;SDS011;62630;55.874;37.516;2022-11-20T09:31:32;22.88;;;11.40;;
74259;SDS011;62630;55.874;37.516;2022-11-20T09:33:58;24.02;;;10.25;;
74259;SDS011;62630;55.874;37.516;2022-11-20T09:36:23;18.55;;;9.18;;
74259;SDS011;62630;55.874;37.516;2022-11-20T09:38:49;23.67;;;9.75;;
74259;SDS011;62630;55.874;37.516;2022-11-20T09:47:07;24.17;;;10.35;;
74259;SDS011;62630;55.874;37.516;2022-11-20T09:53:33;22.80;;;10.20;;
74259;SDS011;62630;55.874;37.516;2022-11-20T09:55:45;22.95;;;9.90;;
74259;SDS011;62630;55.874;37.516;2022-11-20T09:58:16;19.60;;;9.48;;
74259;SDS011;62630;55.874;37.516;2022-11-20T10:01:46;22.65;;;9.25;;
74259;SDS011;62630;55.874;37.516;2022-11-20T10:09:25;22.60;;;9.93;;
74259;SDS011;62630;55.874;37.516;2022-11-20T10:12:26;20.38;;;9.75;;
74259;SDS011;62630;55.874;37.516;2022-11-20T10:15:07;24.80;;;10.50;;
74259;SDS011;62630;55.874;37.516;2022-11-20T10:17:58;20.55;;;9.07;;
74259;SDS011;62630;55.874;37.516;2022-11-20T10:20:33;19.75;;;9.27;;
74259;SDS011;62630;55.874;37.516;2022-11-20T10:29:21;20.50;;;9.73;;
74259;SDS011;62630;55.874;37.516;2022-11-20T10:32:07;29.35;;;11.00;;
74259;SDS011;62630;55.874;37.516;2022-11-20T10:37:24;24.60;;;10.07;;
74259;SDS011;62630;55.874;37.516;2022-11-20T10:39:56;27.48;;;10.60;;
74259;SDS011;62630;55.874;37.516;2022-11-20T10:42:31;25.55;;;9.93;;
74259;SDS011;62630;55.874;37.516;2022-11-20T10:47:42;22.63;;;10.50;;
74259;SDS011;62630;55.874;37.516;2022-11-20T10:50:11;24.48;;;10.07;;
74259;SDS011;62630;55.874;37.516;2022-11-20T10:58:14;23.80;;;9.38;;
74259;SDS011;62630;55.874;37.516;2022-11-20T11:00:46;20.55;;;10.75;;
74259;SDS011;62630;55.874;37.516;2022-11-20T11:03:20;23.13;;;9.43;;
74259;SDS011;62630;55.874;37.516;2022-11-20T11:08:40;19.90;;;8.30;;
74259;SDS011;62630;55.874;37.516;2022-11-20T11:13:53;24.33;;;10.50;;
74259;SDS011;62630;55.874;37.516;2022-11-20T11:16:33;20.70;;;9.20;;
74259;SDS011;62630;55.874;37.516;2022-11-20T11:19:05;19.95;;;10.00;;
74259;SDS011;62630;55.874;37.516;2022-11-20T11:21:36;18.92;;;8.68;;
74259;SDS011;62630;55.874;37.516;2022-11-20T11:24:14;19.27;;;8.43;;
74259;SDS011;62630;55.874;37.516;2022-11-20T11:26:52;20.20;;;9.07;;
74259;SDS011;62630;55.874;37.516;2022-11-20T11:29:30;18.73;;;8.00;;
74259;SDS011;62630;55.874;37.516;2022-11-20T11:32:29;18.92;;;8.27;;
74259;SDS011;62630;55.874;37.516;2022-11-20T11:35:04;17.85;;;7.82;;
74259;SDS011;62630;55.874;37.516;2022-11-20T11:37:35;17.48;;;8.18;;
74259;SDS011;62630;55.874;37.516;2022-11-20T11:40:03;20.15;;;8.02;;
74259;SDS011;62630;55.874;37.516;2022-11-20T11:44:58;18.08;;;8.07;;
74259;SDS011;62630;55.874;37.516;2022-11-20T11:47:42;13.18;;;7.35;;
74259;SDS011;62630;55.874;37.516;2022-11-20T11:55:33;15.40;;;6.72;;
74259;SDS011;62630;55.874;37.516;2022-11-20T12:00:51;14.50;;;7.00;;
74259;SDS011;62630;55.874;37.516;2022-11-20T12:03:24;10.20;;;6.15;;
74259;SDS011;62630;55.874;37.516;2022-11-20T12:06:05;12.15;;;5.75;;
74259;SDS011;62630;55.874;37.516;2022-11-20T12:08:42;12.10;;;6.32;;
74259;SDS011;62630;55.874;37.516;2022-11-20T12:13:53;13.85;;;6.72;;
74259;SDS011;62630;55.874;37.516;2022-11-20T12:16:26;12.90;;;6.22;;
74259;SDS011;62630;55.874;37.516;2022-11-20T12:18:55;14.32;;;6.28;;
74259;SDS011;62630;55.874;37.516;2022-11-20T12:21:34;11.45;;;6.47;;
74259;SDS011;62630;55.874;37.516;2022-11-20T12:35:27;13.60;;;6.03;;
74259;SDS011;62630;55.874;37.516;2022-11-20T12:56:24;12.52;;;5.70;;
74259;SDS011;62630;55.874;37.516;2022-11-20T12:59:07;9.02;;;4.70;;
74259;SDS011;62630;55.874;37.516;2022-11-20T13:01:48;11.75;;;5.55;;
74259;SDS011;62630;55.874;37.516;2022-11-20T13:07:04;11.27;;;5.95;;
74259;SDS011;62630;55.874;37.516;2022-11-20T13:09:34;15.77;;;5.68;;
74259;SDS011;62630;55.874;37.516;2022-11-20T13:12:10;15.88;;;6.63;;
74259;SDS011;62630;55.874;37.516;2022-11-20T13:17:28;9.43;;;5.90;;
74259;SDS011;62630;55.874;37.516;2022-11-20T13:20:02;15.30;;;6.90;;
74259;SDS011;62630;55.874;37.516;2022-11-20T13:22:50;11.38;;;6.32;;
74259;SDS011;62630;55.874;37.516;2022-11-20T13:27:59;14.30;;;6.75;;
74259;SDS011;62630;55.874;37.516;2022-11-20T13:30:29;11.65;;;6.00;;
74259;SDS011;62630;55.874;37.516;2022-11-20T13:32:58;13.23;;;5.95;;
74259;SDS011;62630;55.874;37.516;2022-11-20T13:35:32;10.50;;;6.28;;
74259;SDS011;62630;55.874;37.516;2022-11-20T13:40:36;13.60;;;6.38;;
74259;SDS011;62630;55.874;37.516;2022-11-20T13:45:35;13.02;;;7.18;;
74259;SDS011;62630;55.874;37.516;2022-11-20T13:48:05;13.63;;;6.65;;
74259;SDS011;62630;55.874;37.516;2022-11-20T14:00:17;14.73;;;6.30;;
74259;SDS011;62630;55.874;37.516;2022-11-20T14:03:30;10.65;;;5.78;;
74259;SDS011;62630;55.874;37.516;2022-11-20T14:05:51;14.63;;;6.75;;
74259;SDS011;62630;55.874;37.516;2022-11-20T14:08:31;10.63;;;6.15;;
74259;SDS011;62630;55.874;37.516;2022-11-20T14:17:18;12.15;;;6.35;;
74259;SDS011;62630;55.874;37.516;2022-11-20T14:19:58;18.75;;;7.03;;
74259;SDS011;62630;55.874;37.516;2022-11-20T14:22:38;12.13;;;5.90;;
74259;SDS011;62630;55.874;37.516;2022-11-20T14:25:06;11.10;;;5.15;;
74259;SDS011;62630;55.874;37.516;2022-11-20T14:27:47;8.68;;;5.18;;
74259;SDS011;62630;55.874;37.516;2022-11-20T14:32:56;10.15;;;5.53;;
74259;SDS011;62630;55.874;37.516;2022-11-20T14:38:02;11.00;;;6.13;;
74259;SDS011;62630;55.874;37.516;2022-11-20T14:40:30;11.60;;;5.63;;
74259;SDS011;62630;55.874;37.516;2022-11-20T14:45:54;11.55;;;5.18;;
74259;SDS011;62630;55.874;37.516;2022-11-20T14:48:32;15.20;;;5.97;;
74259;SDS011;62630;55.874;37.516;2022-11-20T14:51:25;13.05;;;5.47;;
74259;SDS011;62630;55.874;37.516;2022-11-20T14:59:46;11.50;;;6.03;;
74259;SDS011;62630;55.874;37.516;2022-11-20T15:02:14;11.40;;;6.35;;
74259;SDS011;62630;55.874;37.516;2022-11-20T15:04:50;10.90;;;6.20;;
74259;SDS011;62630;55.874;37.516;2022-11-20T15:07:26;11.05;;;5.32;;
74259;SDS011;62630;55.874;37.516;2022-11-20T15:10:04;9.90;;;5.38;;
74259;SDS011;62630;55.874;37.516;2022-11-20T15:12:32;11.10;;;5.22;;
74259;SDS011;62630;55.874;37.516;2022-11-20T15:15:01;10.85;;;5.57;;
74259;SDS011;62630;55.874;37.516;2022-11-20T15:17:28;14.52;;;5.57;;
74259;SDS011;62630;55.874;37.516;2022-11-20T15:19:53;12.50;;;5.80;;
74259;SDS011;62630;55.874;37.516;2022-11-20T15:22:20;10.32;;;6.72;;
74259;SDS011;62630;55.874;37.516;2022-11-20T15:24:46;9.98;;;6.57;;
74259;SDS011;62630;55.874;37.516;2022-11-20T15:27:11;12.82;;;6.57;;
74259;SDS011;62630;55.874;37.516;2022-11-20T15:29:37;11.10;;;6.05;;
74259;SDS011;62630;55.874;37.516;2022-11-20T15:32:02;12.77;;;5.35;;
74259;SDS011;62630;55.874;37.516;2022-11-20T15:34:28;8.88;;;5.22;;
74259;SDS011;62630;55.874;37.516;2022-11-20T15:36:54;10.18;;;6.40;;
74259;SDS011;62630;55.874;37.516;2022-11-20T15:39:19;11.57;;;6.38;;
74259;SDS011;62630;55.874;37.516;2022-11-20T15:41:45;8.90;;;4.65;;
74259;SDS011;62630;55.874;37.516;2022-11-20T15:44:11;10.40;;;5.35;;
74259;SDS011;62630;55.874;37.516;2022-11-20T15:46:37;14.27;;;7.05;;
74259;SDS011;62630;55.874;37.516;2022-11-20T15:49:16;14.00;;;6.72;;
74259;SDS011;62630;55.874;37.516;2022-11-20T15:51:44;14.20;;;6.20;;
74259;SDS011;62630;55.874;37.516;2022-11-20T15:54:17;15.02;;;6.70;;
74259;SDS011;62630;55.874;37.516;2022-11-20T15:56:45;12.05;;;6.45;;
74259;SDS011;62630;55.874;37.516;2022-11-20T15:59:14;14.93;;;6.78;;
74259;SDS011;62630;55.874;37.516;2022-11-20T16:01:40;11.77;;;6.68;;
74259;SDS011;62630;55.874;37.516;2022-11-20T16:04:13;14.75;;;6.63;;
74259;SDS011;62630;55.874;37.516;2022-11-20T16:06:40;12.45;;;6.38;;
74259;SDS011;62630;55.874;37.516;2022-11-20T16:09:06;15.90;;;5.95;;
74259;SDS011;62630;55.874;37.516;2022-11-20T16:11:32;14.90;;;6.68;;
74259;SDS011;62630;55.874;37.516;2022-11-20T16:14:00;14.30;;;6.88;;
74259;SDS011;62630;55.874;37.516;2022-11-20T16:16:44;13.15;;;6.00;;
74259;SDS011;62630;55.874;37.516;2022-11-20T16:19:13;15.38;;;6.60;;
74259;SDS011;62630;55.874;37.516;2022-11-20T16:21:39;13.65;;;6.60;;
74259;SDS011;62630;55.874;37.516;2022-11-20T16:24:07;9.07;;;5.30;;
74259;SDS011;62630;55.874;37.516;2022-11-20T16:26:36;12.10;;;6.28;;
74259;SDS011;62630;55.874;37.516;2022-11-20T16:29:02;12.00;;;6.53;;
74259;SDS011;62630;55.874;37.516;2022-11-20T16:31:30;13.20;;;5.90;;
74259;SDS011;62630;55.874;37.516;2022-11-20T16:33:57;11.23;;;6.10;;
74259;SDS011;62630;55.874;37.516;2022-11-20T16:36:25;13.02;;;5.80;;
74259;SDS011;62630;55.874;37.516;2022-11-20T16:38:57;8.93;;;5.55;;
74259;SDS011;62630;55.874;37.516;2022-11-20T16:41:27;11.55;;;6.28;;
74259;SDS011;62630;55.874;37.516;2022-11-20T16:43:56;10.02;;;5.55;;
74259;SDS011;62630;55.874;37.516;2022-11-20T16:46:23;13.63;;;6.53;;
74259;SDS011;62630;55.874;37.516;2022-11-20T16:48:54;12.30;;;5.63;;